sensor_id;sensor_type;location;lat;lon;timestamp;P1;durP1;ratioP1;P2;durP2;ratioP2
4222;SDS011;2125;51.436;14.138;2023-02-17T00:01:57;24.13;;;9.07;;
4222;SDS011;2125;51.436;14.138;2023-02-17T00:04:23;21.63;;;8.47;;
4222;SDS011;2125;51.436;14.138;2023-02-17T00:06:52;18.77;;;7.67;;
4222;SDS011;2125;51.436;14.138;2023-02-17T00:09:18;22.70;;;9.10;;
4222;SDS011;2125;51.436;14.138;2023-02-17T00:11:46;17.20;;;7.13;;
4222;SDS011;2125;51.436;14.138;2023-02-17T00:14:13;20.60;;;8.50;;
4222;SDS011;2125;51.436;14.138;2023-02-17T00:16:40;26.27;;;9.13;;
4222;SDS011;2125;51.436;14.138;2023-02-17T00:19:08;24.17;;;9.30;;
4222;SDS011;2125;51.436;14.138;2023-02-17T00:21:48;18.40;;;7.17;;
4222;SDS011;2125;51.436;14.138;2023-02-17T00:24:15;23.87;;;8.60;;
4222;SDS011;2125;51.436;14.138;2023-02-17T00:26:42;24.27;;;8.13;;
4222;SDS011;2125;51.436;14.138;2023-02-17T00:29:10;15.50;;;6.73;;
4222;SDS011;2125;51.436;14.138;2023-02-17T00:31:36;18.97;;;7.80;;
4222;SDS011;2125;51.436;14.138;2023-02-17T00:34:03;28.70;;;9.43;;
4222;SDS011;2125;51.436;14.138;2023-02-17T00:36:30;19.60;;;7.17;;
4222;SDS011;2125;51.436;14.138;2023-02-17T00:38:56;16.57;;;6.50;;
4222;SDS011;2125;51.436;14.138;2023-02-17T00:41:24;22.00;;;9.20;;
4222;SDS011;2125;51.436;14.138;2023-02-17T00:43:51;19.23;;;8.63;;
4222;SDS011;2125;51.436;14.138;2023-02-17T00:46:19;22.80;;;9.27;;
4222;SDS011;2125;51.436;14.138;2023-02-17T00:48:46;21.13;;;8.40;;
4222;SDS011;2125;51.436;14.138;2023-02-17T00:51:13;9.73;;;4.53;;
4222;SDS011;2125;51.436;14.138;2023-02-17T00:53:40;26.43;;;8.77;;
4222;SDS011;2125;51.436;14.138;2023-02-17T00:56:07;21.30;;;6.90;;
4222;SDS011;2125;51.436;14.138;2023-02-17T00:58:34;23.00;;;7.97;;
4222;SDS011;2125;51.436;14.138;2023-02-17T01:01:02;20.57;;;7.27;;
4222;SDS011;2125;51.436;14.138;2023-02-17T01:03:30;18.30;;;8.03;;
4222;SDS011;2125;51.436;14.138;2023-02-17T01:05:57;18.20;;;7.50;;
4222;SDS011;2125;51.436;14.138;2023-02-17T01:08:24;20.40;;;8.00;;
4222;SDS011;2125;51.436;14.138;2023-02-17T01:10:51;20.23;;;6.83;;
4222;SDS011;2125;51.436;14.138;2023-02-17T01:13:18;15.27;;;5.80;;
4222;SDS011;2125;51.436;14.138;2023-02-17T01:15:46;21.43;;;7.63;;
4222;SDS011;2125;51.436;14.138;2023-02-17T01:18:14;19.43;;;7.90;;
4222;SDS011;2125;51.436;14.138;2023-02-17T01:20:43;23.03;;;8.27;;
4222;SDS011;2125;51.436;14.138;2023-02-17T01:23:10;20.93;;;7.73;;
4222;SDS011;2125;51.436;14.138;2023-02-17T01:25:38;21.03;;;6.97;;
4222;SDS011;2125;51.436;14.138;2023-02-17T01:28:05;13.97;;;6.07;;
4222;SDS011;2125;51.436;14.138;2023-02-17T01:30:33;22.57;;;8.20;;
4222;SDS011;2125;51.436;14.138;2023-02-17T01:33:00;19.83;;;7.80;;
4222;SDS011;2125;51.436;14.138;2023-02-17T01:35:26;21.67;;;8.47;;
4222;SDS011;2125;51.436;14.138;2023-02-17T01:37:54;21.73;;;7.40;;
4222;SDS011;2125;51.436;14.138;2023-02-17T01:40:21;22.03;;;8.77;;
4222;SDS011;2125;51.436;14.138;2023-02-17T01:42:47;4.67;;;2.93;;
4222;SDS011;2125;51.436;14.138;2023-02-17T01:48:10;13.23;;;4.73;;
4222;SDS011;2125;51.436;14.138;2023-02-17T01:50:40;20.47;;;8.47;;
4222;SDS011;2125;51.436;14.138;2023-02-17T01:53:10;11.37;;;4.87;;
4222;SDS011;2125;51.436;14.138;2023-02-17T01:55:42;15.57;;;5.87;;
4222;SDS011;2125;51.436;14.138;2023-02-17T01:58:10;21.70;;;8.63;;
4222;SDS011;2125;51.436;14.138;2023-02-17T02:00:40;12.97;;;5.67;;
4222;SDS011;2125;51.436;14.138;2023-02-17T02:03:09;22.07;;;8.80;;
4222;SDS011;2125;51.436;14.138;2023-02-17T02:05:38;18.93;;;8.37;;
4222;SDS011;2125;51.436;14.138;2023-02-17T02:08:06;21.53;;;8.73;;
4222;SDS011;2125;51.436;14.138;2023-02-17T02:10:34;21.07;;;8.60;;
4222;SDS011;2125;51.436;14.138;2023-02-17T02:13:01;18.50;;;8.20;;
4222;SDS011;2125;51.436;14.138;2023-02-17T02:15:30;22.90;;;8.30;;
4222;SDS011;2125;51.436;14.138;2023-02-17T02:18:07;21.70;;;7.70;;
4222;SDS011;2125;51.436;14.138;2023-02-17T02:23:53;23.37;;;9.43;;
4222;SDS011;2125;51.436;14.138;2023-02-17T02:29:49;11.63;;;5.20;;
4222;SDS011;2125;51.436;14.138;2023-02-17T02:32:44;24.60;;;8.90;;
4222;SDS011;2125;51.436;14.138;2023-02-17T02:35:15;27.03;;;9.17;;
4222;SDS011;2125;51.436;14.138;2023-02-17T02:37:48;21.03;;;7.87;;
4222;SDS011;2125;51.436;14.138;2023-02-17T02:40:21;26.83;;;8.77;;
4222;SDS011;2125;51.436;14.138;2023-02-17T02:42:52;20.77;;;8.07;;
4222;SDS011;2125;51.436;14.138;2023-02-17T02:45:19;21.07;;;8.87;;
4222;SDS011;2125;51.436;14.138;2023-02-17T02:47:49;19.43;;;7.40;;
4222;SDS011;2125;51.436;14.138;2023-02-17T02:50:19;21.37;;;9.00;;
4222;SDS011;2125;51.436;14.138;2023-02-17T02:52:54;18.50;;;9.00;;
4222;SDS011;2125;51.436;14.138;2023-02-17T02:55:28;22.50;;;9.47;;
4222;SDS011;2125;51.436;14.138;2023-02-17T02:58:10;12.83;;;5.80;;
4222;SDS011;2125;51.436;14.138;2023-02-17T03:00:43;21.67;;;8.80;;
4222;SDS011;2125;51.436;14.138;2023-02-17T03:03:21;19.43;;;7.60;;
4222;SDS011;2125;51.436;14.138;2023-02-17T03:05:53;18.97;;;7.73;;
4222;SDS011;2125;51.436;14.138;2023-02-17T03:08:25;23.83;;;8.93;;
4222;SDS011;2125;51.436;14.138;2023-02-17T03:10:56;17.97;;;7.57;;
4222;SDS011;2125;51.436;14.138;2023-02-17T03:13:23;18.57;;;8.00;;
4222;SDS011;2125;51.436;14.138;2023-02-17T03:15:50;16.33;;;6.30;;
4222;SDS011;2125;51.436;14.138;2023-02-17T03:18:17;15.80;;;5.83;;
4222;SDS011;2125;51.436;14.138;2023-02-17T03:20:47;22.37;;;7.63;;
4222;SDS011;2125;51.436;14.138;2023-02-17T03:23:16;18.20;;;7.20;;
4222;SDS011;2125;51.436;14.138;2023-02-17T03:25:43;15.07;;;6.63;;
4222;SDS011;2125;51.436;14.138;2023-02-17T03:28:11;18.03;;;8.27;;
4222;SDS011;2125;51.436;14.138;2023-02-17T03:30:38;20.20;;;6.93;;
4222;SDS011;2125;51.436;14.138;2023-02-17T03:33:05;16.40;;;6.20;;
4222;SDS011;2125;51.436;14.138;2023-02-17T03:35:32;14.10;;;5.90;;
4222;SDS011;2125;51.436;14.138;2023-02-17T03:38:00;15.50;;;6.53;;
4222;SDS011;2125;51.436;14.138;2023-02-17T03:40:26;6.30;;;2.50;;
4222;SDS011;2125;51.436;14.138;2023-02-17T03:42:54;13.70;;;4.80;;
4222;SDS011;2125;51.436;14.138;2023-02-17T03:45:21;18.10;;;5.73;;
4222;SDS011;2125;51.436;14.138;2023-02-17T03:47:48;15.40;;;5.57;;
4222;SDS011;2125;51.436;14.138;2023-02-17T03:50:14;16.47;;;6.30;;
4222;SDS011;2125;51.436;14.138;2023-02-17T03:52:41;15.70;;;5.90;;
4222;SDS011;2125;51.436;14.138;2023-02-17T03:55:09;10.13;;;4.97;;
4222;SDS011;2125;51.436;14.138;2023-02-17T03:57:35;17.53;;;6.53;;
4222;SDS011;2125;51.436;14.138;2023-02-17T04:00:02;10.00;;;4.67;;
4222;SDS011;2125;51.436;14.138;2023-02-17T04:02:29;14.90;;;5.47;;
4222;SDS011;2125;51.436;14.138;2023-02-17T04:04:56;14.70;;;4.37;;
4222;SDS011;2125;51.436;14.138;2023-02-17T04:07:22;12.23;;;3.70;;
4222;SDS011;2125;51.436;14.138;2023-02-17T04:09:49;13.20;;;6.13;;
4222;SDS011;2125;51.436;14.138;2023-02-17T04:12:16;13.10;;;5.87;;
4222;SDS011;2125;51.436;14.138;2023-02-17T04:14:43;17.63;;;5.70;;
4222;SDS011;2125;51.436;14.138;2023-02-17T04:17:10;16.17;;;7.30;;
4222;SDS011;2125;51.436;14.138;2023-02-17T04:19:36;12.43;;;5.13;;
4222;SDS011;2125;51.436;14.138;2023-02-17T04:22:03;15.93;;;7.07;;
4222;SDS011;2125;51.436;14.138;2023-02-17T04:24:32;11.90;;;4.10;;
4222;SDS011;2125;51.436;14.138;2023-02-17T04:26:59;14.73;;;7.07;;
4222;SDS011;2125;51.436;14.138;2023-02-17T04:29:27;4.33;;;2.70;;
4222;SDS011;2125;51.436;14.138;2023-02-17T04:31:54;19.80;;;3.57;;
4222;SDS011;2125;51.436;14.138;2023-02-17T04:34:21;19.40;;;5.87;;
4222;SDS011;2125;51.436;14.138;2023-02-17T04:36:47;9.87;;;5.17;;
4222;SDS011;2125;51.436;14.138;2023-02-17T04:39:14;20.83;;;8.90;;
4222;SDS011;2125;51.436;14.138;2023-02-17T04:41:40;12.90;;;4.83;;
4222;SDS011;2125;51.436;14.138;2023-02-17T04:44:07;12.67;;;4.33;;
4222;SDS011;2125;51.436;14.138;2023-02-17T04:46:35;12.40;;;5.70;;
4222;SDS011;2125;51.436;14.138;2023-02-17T04:49:01;13.83;;;4.70;;
4222;SDS011;2125;51.436;14.138;2023-02-17T04:51:28;6.50;;;2.97;;
4222;SDS011;2125;51.436;14.138;2023-02-17T04:53:55;18.10;;;7.40;;
4222;SDS011;2125;51.436;14.138;2023-02-17T04:56:21;7.30;;;3.60;;
4222;SDS011;2125;51.436;14.138;2023-02-17T04:58:48;12.33;;;4.47;;
4222;SDS011;2125;51.436;14.138;2023-02-17T05:01:14;15.50;;;6.77;;
4222;SDS011;2125;51.436;14.138;2023-02-17T05:03:42;19.10;;;8.07;;
4222;SDS011;2125;51.436;14.138;2023-02-17T05:06:09;22.50;;;9.10;;
4222;SDS011;2125;51.436;14.138;2023-02-17T05:08:35;16.60;;;7.60;;
4222;SDS011;2125;51.436;14.138;2023-02-17T05:11:02;21.77;;;6.83;;
4222;SDS011;2125;51.436;14.138;2023-02-17T05:13:29;24.47;;;9.50;;
4222;SDS011;2125;51.436;14.138;2023-02-17T05:15:57;26.27;;;9.40;;
4222;SDS011;2125;51.436;14.138;2023-02-17T05:18:23;17.70;;;8.47;;
4222;SDS011;2125;51.436;14.138;2023-02-17T05:20:51;25.43;;;10.87;;
4222;SDS011;2125;51.436;14.138;2023-02-17T05:23:18;17.40;;;6.50;;
4222;SDS011;2125;51.436;14.138;2023-02-17T05:25:44;21.87;;;9.87;;
4222;SDS011;2125;51.436;14.138;2023-02-17T05:28:11;10.47;;;4.03;;
4222;SDS011;2125;51.436;14.138;2023-02-17T05:30:38;12.67;;;4.70;;
4222;SDS011;2125;51.436;14.138;2023-02-17T05:33:04;12.73;;;6.07;;
4222;SDS011;2125;51.436;14.138;2023-02-17T05:35:32;23.10;;;8.97;;
4222;SDS011;2125;51.436;14.138;2023-02-17T05:38:00;12.47;;;5.57;;
4222;SDS011;2125;51.436;14.138;2023-02-17T05:40:27;27.00;;;10.30;;
4222;SDS011;2125;51.436;14.138;2023-02-17T05:42:53;25.83;;;9.70;;
4222;SDS011;2125;51.436;14.138;2023-02-17T05:45:20;24.77;;;10.20;;
4222;SDS011;2125;51.436;14.138;2023-02-17T05:47:47;23.87;;;10.77;;
4222;SDS011;2125;51.436;14.138;2023-02-17T05:50:14;8.50;;;4.50;;
4222;SDS011;2125;51.436;14.138;2023-02-17T05:52:41;20.00;;;7.40;;
4222;SDS011;2125;51.436;14.138;2023-02-17T05:55:09;29.97;;;11.20;;
4222;SDS011;2125;51.436;14.138;2023-02-17T05:57:35;22.10;;;9.10;;
4222;SDS011;2125;51.436;14.138;2023-02-17T06:00:02;22.93;;;8.97;;
4222;SDS011;2125;51.436;14.138;2023-02-17T06:02:30;22.17;;;8.70;;
4222;SDS011;2125;51.436;14.138;2023-02-17T06:04:57;24.93;;;9.00;;
4222;SDS011;2125;51.436;14.138;2023-02-17T06:07:23;23.13;;;8.87;;
4222;SDS011;2125;51.436;14.138;2023-02-17T06:09:50;16.43;;;6.80;;
4222;SDS011;2125;51.436;14.138;2023-02-17T06:12:18;19.77;;;7.70;;
4222;SDS011;2125;51.436;14.138;2023-02-17T06:14:44;23.13;;;9.73;;
4222;SDS011;2125;51.436;14.138;2023-02-17T06:17:12;25.37;;;9.17;;
4222;SDS011;2125;51.436;14.138;2023-02-17T06:19:39;27.77;;;9.60;;
4222;SDS011;2125;51.436;14.138;2023-02-17T06:22:05;24.93;;;9.00;;
4222;SDS011;2125;51.436;14.138;2023-02-17T06:24:32;19.60;;;8.10;;
4222;SDS011;2125;51.436;14.138;2023-02-17T06:26:59;23.10;;;10.30;;
4222;SDS011;2125;51.436;14.138;2023-02-17T06:29:27;19.13;;;9.00;;
4222;SDS011;2125;51.436;14.138;2023-02-17T06:31:55;20.90;;;9.20;;
4222;SDS011;2125;51.436;14.138;2023-02-17T06:34:22;19.90;;;8.37;;
4222;SDS011;2125;51.436;14.138;2023-02-17T06:36:48;23.43;;;10.30;;
4222;SDS011;2125;51.436;14.138;2023-02-17T06:39:15;18.23;;;7.93;;
4222;SDS011;2125;51.436;14.138;2023-02-17T06:41:41;20.63;;;9.20;;
4222;SDS011;2125;51.436;14.138;2023-02-17T06:44:08;29.07;;;8.73;;
4222;SDS011;2125;51.436;14.138;2023-02-17T06:46:36;17.60;;;7.83;;
4222;SDS011;2125;51.436;14.138;2023-02-17T06:49:03;18.07;;;7.10;;
4222;SDS011;2125;51.436;14.138;2023-02-17T06:51:32;18.40;;;8.63;;
4222;SDS011;2125;51.436;14.138;2023-02-17T06:53:58;23.70;;;8.77;;
4222;SDS011;2125;51.436;14.138;2023-02-17T06:56:25;21.73;;;9.50;;
4222;SDS011;2125;51.436;14.138;2023-02-17T06:58:52;20.57;;;8.77;;
4222;SDS011;2125;51.436;14.138;2023-02-17T07:01:20;18.57;;;8.27;;
4222;SDS011;2125;51.436;14.138;2023-02-17T07:03:51;18.93;;;8.80;;
4222;SDS011;2125;51.436;14.138;2023-02-17T07:06:18;16.90;;;6.57;;
4222;SDS011;2125;51.436;14.138;2023-02-17T07:08:44;24.77;;;9.33;;
4222;SDS011;2125;51.436;14.138;2023-02-17T07:11:12;17.10;;;8.10;;
4222;SDS011;2125;51.436;14.138;2023-02-17T07:13:40;21.73;;;8.97;;
4222;SDS011;2125;51.436;14.138;2023-02-17T07:16:07;32.73;;;12.47;;
4222;SDS011;2125;51.436;14.138;2023-02-17T07:18:34;19.07;;;8.33;;
4222;SDS011;2125;51.436;14.138;2023-02-17T07:21:04;21.27;;;8.17;;
4222;SDS011;2125;51.436;14.138;2023-02-17T07:23:31;20.63;;;9.57;;
4222;SDS011;2125;51.436;14.138;2023-02-17T07:26:00;15.90;;;6.10;;
4222;SDS011;2125;51.436;14.138;2023-02-17T07:28:27;22.13;;;8.50;;
4222;SDS011;2125;51.436;14.138;2023-02-17T07:30:53;21.03;;;8.57;;
4222;SDS011;2125;51.436;14.138;2023-02-17T07:33:20;21.67;;;8.27;;
4222;SDS011;2125;51.436;14.138;2023-02-17T07:35:46;23.50;;;7.17;;
4222;SDS011;2125;51.436;14.138;2023-02-17T07:38:14;8.27;;;4.20;;
4222;SDS011;2125;51.436;14.138;2023-02-17T07:40:41;14.43;;;6.70;;
4222;SDS011;2125;51.436;14.138;2023-02-17T07:43:07;16.17;;;6.70;;
4222;SDS011;2125;51.436;14.138;2023-02-17T07:45:34;20.37;;;8.80;;
4222;SDS011;2125;51.436;14.138;2023-02-17T07:48:00;19.10;;;7.90;;
4222;SDS011;2125;51.436;14.138;2023-02-17T07:50:27;10.17;;;5.07;;
4222;SDS011;2125;51.436;14.138;2023-02-17T07:52:54;17.87;;;7.63;;
4222;SDS011;2125;51.436;14.138;2023-02-17T07:55:21;8.40;;;3.90;;
4222;SDS011;2125;51.436;14.138;2023-02-17T07:57:49;11.60;;;5.83;;
4222;SDS011;2125;51.436;14.138;2023-02-17T08:00:16;8.40;;;3.73;;
4222;SDS011;2125;51.436;14.138;2023-02-17T08:02:43;12.90;;;5.80;;
4222;SDS011;2125;51.436;14.138;2023-02-17T08:05:09;11.67;;;5.10;;
4222;SDS011;2125;51.436;14.138;2023-02-17T08:07:36;9.67;;;4.77;;
4222;SDS011;2125;51.436;14.138;2023-02-17T08:10:05;11.80;;;5.00;;
4222;SDS011;2125;51.436;14.138;2023-02-17T08:12:53;11.60;;;5.33;;
4222;SDS011;2125;51.436;14.138;2023-02-17T08:15:37;8.60;;;4.00;;
4222;SDS011;2125;51.436;14.138;2023-02-17T08:18:06;12.90;;;4.77;;
4222;SDS011;2125;51.436;14.138;2023-02-17T08:20:32;16.50;;;6.60;;
4222;SDS011;2125;51.436;14.138;2023-02-17T08:22:59;13.23;;;5.80;;
4222;SDS011;2125;51.436;14.138;2023-02-17T08:25:30;10.47;;;4.93;;
4222;SDS011;2125;51.436;14.138;2023-02-17T08:28:00;9.50;;;4.70;;
4222;SDS011;2125;51.436;14.138;2023-02-17T08:30:27;4.93;;;2.57;;
4222;SDS011;2125;51.436;14.138;2023-02-17T08:32:54;7.00;;;4.23;;
4222;SDS011;2125;51.436;14.138;2023-02-17T08:35:21;13.23;;;5.43;;
4222;SDS011;2125;51.436;14.138;2023-02-17T08:37:47;6.77;;;2.90;;
4222;SDS011;2125;51.436;14.138;2023-02-17T08:40:14;12.63;;;5.50;;
4222;SDS011;2125;51.436;14.138;2023-02-17T08:42:42;11.30;;;5.90;;
4222;SDS011;2125;51.436;14.138;2023-02-17T08:45:11;10.40;;;4.20;;
4222;SDS011;2125;51.436;14.138;2023-02-17T08:47:38;6.70;;;3.03;;
4222;SDS011;2125;51.436;14.138;2023-02-17T08:50:06;11.37;;;5.40;;
4222;SDS011;2125;51.436;14.138;2023-02-17T08:52:34;9.20;;;3.43;;
4222;SDS011;2125;51.436;14.138;2023-02-17T08:55:00;10.73;;;3.30;;
4222;SDS011;2125;51.436;14.138;2023-02-17T08:57:28;11.20;;;4.50;;
4222;SDS011;2125;51.436;14.138;2023-02-17T08:59:54;12.20;;;5.07;;
4222;SDS011;2125;51.436;14.138;2023-02-17T09:02:22;13.33;;;3.90;;
4222;SDS011;2125;51.436;14.138;2023-02-17T09:04:49;12.10;;;4.73;;
4222;SDS011;2125;51.436;14.138;2023-02-17T09:07:15;10.60;;;4.47;;
4222;SDS011;2125;51.436;14.138;2023-02-17T09:09:46;9.57;;;3.97;;
4222;SDS011;2125;51.436;14.138;2023-02-17T09:12:18;4.00;;;2.10;;
4222;SDS011;2125;51.436;14.138;2023-02-17T09:14:44;5.63;;;2.80;;
4222;SDS011;2125;51.436;14.138;2023-02-17T09:17:11;5.63;;;2.20;;
4222;SDS011;2125;51.436;14.138;2023-02-17T09:19:39;9.63;;;5.03;;
4222;SDS011;2125;51.436;14.138;2023-02-17T09:22:06;6.73;;;3.30;;
4222;SDS011;2125;51.436;14.138;2023-02-17T09:24:32;10.33;;;4.77;;
4222;SDS011;2125;51.436;14.138;2023-02-17T09:27:02;3.03;;;2.33;;
4222;SDS011;2125;51.436;14.138;2023-02-17T09:29:29;11.97;;;5.50;;
4222;SDS011;2125;51.436;14.138;2023-02-17T09:31:55;5.27;;;2.87;;
4222;SDS011;2125;51.436;14.138;2023-02-17T09:34:22;7.73;;;3.30;;
4222;SDS011;2125;51.436;14.138;2023-02-17T09:36:50;9.00;;;4.30;;
4222;SDS011;2125;51.436;14.138;2023-02-17T09:39:16;4.73;;;2.60;;
4222;SDS011;2125;51.436;14.138;2023-02-17T09:41:43;9.47;;;3.90;;
4222;SDS011;2125;51.436;14.138;2023-02-17T09:44:15;3.30;;;2.67;;
4222;SDS011;2125;51.436;14.138;2023-02-17T09:46:47;5.90;;;2.63;;
4222;SDS011;2125;51.436;14.138;2023-02-17T09:49:21;9.60;;;4.03;;
4222;SDS011;2125;51.436;14.138;2023-02-17T09:51:53;2.97;;;1.83;;
4222;SDS011;2125;51.436;14.138;2023-02-17T09:54:25;11.27;;;3.70;;
4222;SDS011;2125;51.436;14.138;2023-02-17T09:56:56;7.03;;;4.07;;
4222;SDS011;2125;51.436;14.138;2023-02-17T09:59:26;9.80;;;3.20;;
4222;SDS011;2125;51.436;14.138;2023-02-17T10:01:57;9.40;;;4.47;;
4222;SDS011;2125;51.436;14.138;2023-02-17T10:04:27;5.97;;;2.97;;
4222;SDS011;2125;51.436;14.138;2023-02-17T10:07:04;5.17;;;3.00;;
4222;SDS011;2125;51.436;14.138;2023-02-17T10:09:41;2.90;;;2.10;;
4222;SDS011;2125;51.436;14.138;2023-02-17T10:12:14;6.47;;;2.27;;
4222;SDS011;2125;51.436;14.138;2023-02-17T10:14:45;8.90;;;3.47;;
4222;SDS011;2125;51.436;14.138;2023-02-17T10:19:52;5.87;;;3.47;;
4222;SDS011;2125;51.436;14.138;2023-02-17T10:22:24;16.27;;;4.70;;
4222;SDS011;2125;51.436;14.138;2023-02-17T10:24:52;6.73;;;3.80;;
4222;SDS011;2125;51.436;14.138;2023-02-17T10:27:23;11.37;;;3.53;;
4222;SDS011;2125;51.436;14.138;2023-02-17T10:30:06;5.30;;;2.87;;
4222;SDS011;2125;51.436;14.138;2023-02-17T10:32:49;7.87;;;3.77;;
4222;SDS011;2125;51.436;14.138;2023-02-17T10:35:31;10.17;;;3.80;;
4222;SDS011;2125;51.436;14.138;2023-02-17T10:38:12;7.20;;;3.03;;
4222;SDS011;2125;51.436;14.138;2023-02-17T10:40:42;6.67;;;3.57;;
4222;SDS011;2125;51.436;14.138;2023-02-17T10:43:13;5.13;;;3.27;;
4222;SDS011;2125;51.436;14.138;2023-02-17T10:45:45;7.70;;;3.60;;
4222;SDS011;2125;51.436;14.138;2023-02-17T10:48:15;7.80;;;3.77;;
4222;SDS011;2125;51.436;14.138;2023-02-17T10:50:45;7.00;;;3.90;;
4222;SDS011;2125;51.436;14.138;2023-02-17T10:53:15;12.30;;;4.43;;
4222;SDS011;2125;51.436;14.138;2023-02-17T10:55:48;4.00;;;2.17;;
4222;SDS011;2125;51.436;14.138;2023-02-17T10:58:20;2.80;;;1.70;;
4222;SDS011;2125;51.436;14.138;2023-02-17T11:00:51;3.97;;;1.83;;
4222;SDS011;2125;51.436;14.138;2023-02-17T11:03:20;6.60;;;3.40;;
4222;SDS011;2125;51.436;14.138;2023-02-17T11:05:53;9.00;;;3.70;;
4222;SDS011;2125;51.436;14.138;2023-02-17T11:08:30;6.47;;;2.83;;
4222;SDS011;2125;51.436;14.138;2023-02-17T11:11:02;5.20;;;2.33;;
4222;SDS011;2125;51.436;14.138;2023-02-17T11:13:33;4.73;;;2.10;;
4222;SDS011;2125;51.436;14.138;2023-02-17T11:16:02;5.30;;;3.30;;
4222;SDS011;2125;51.436;14.138;2023-02-17T11:18:30;5.67;;;3.13;;
4222;SDS011;2125;51.436;14.138;2023-02-17T11:20:59;3.10;;;1.90;;
4222;SDS011;2125;51.436;14.138;2023-02-17T11:23:45;2.20;;;1.90;;
4222;SDS011;2125;51.436;14.138;2023-02-17T11:26:16;3.17;;;2.30;;
4222;SDS011;2125;51.436;14.138;2023-02-17T11:28:48;4.40;;;2.70;;
4222;SDS011;2125;51.436;14.138;2023-02-17T11:31:21;8.70;;;3.57;;
4222;SDS011;2125;51.436;14.138;2023-02-17T11:33:50;4.37;;;2.03;;
4222;SDS011;2125;51.436;14.138;2023-02-17T11:36:21;2.60;;;1.60;;
4222;SDS011;2125;51.436;14.138;2023-02-17T11:38:51;3.20;;;1.90;;
4222;SDS011;2125;51.436;14.138;2023-02-17T11:41:17;3.87;;;2.30;;
4222;SDS011;2125;51.436;14.138;2023-02-17T11:43:52;1.63;;;1.43;;
4222;SDS011;2125;51.436;14.138;2023-02-17T11:46:22;6.50;;;3.80;;
4222;SDS011;2125;51.436;14.138;2023-02-17T11:49:01;5.30;;;2.90;;
4222;SDS011;2125;51.436;14.138;2023-02-17T11:51:43;3.67;;;2.00;;
4222;SDS011;2125;51.436;14.138;2023-02-17T11:54:22;4.80;;;2.27;;
4222;SDS011;2125;51.436;14.138;2023-02-17T11:57:05;3.37;;;2.17;;
4222;SDS011;2125;51.436;14.138;2023-02-17T11:59:48;4.97;;;2.97;;
4222;SDS011;2125;51.436;14.138;2023-02-17T12:02:33;6.13;;;3.03;;
4222;SDS011;2125;51.436;14.138;2023-02-17T12:05:16;5.00;;;2.50;;
4222;SDS011;2125;51.436;14.138;2023-02-17T12:07:57;5.53;;;2.17;;
4222;SDS011;2125;51.436;14.138;2023-02-17T12:10:40;2.97;;;1.30;;
4222;SDS011;2125;51.436;14.138;2023-02-17T12:16:17;4.47;;;2.40;;
4222;SDS011;2125;51.436;14.138;2023-02-17T12:18:59;4.77;;;2.67;;
4222;SDS011;2125;51.436;14.138;2023-02-17T12:21:34;3.77;;;2.20;;
4222;SDS011;2125;51.436;14.138;2023-02-17T12:27:16;6.27;;;3.30;;
4222;SDS011;2125;51.436;14.138;2023-02-17T12:30:04;4.63;;;2.53;;
4222;SDS011;2125;51.436;14.138;2023-02-17T12:32:51;2.60;;;1.50;;
4222;SDS011;2125;51.436;14.138;2023-02-17T12:35:32;3.07;;;2.20;;
4222;SDS011;2125;51.436;14.138;2023-02-17T12:38:14;2.87;;;1.83;;
4222;SDS011;2125;51.436;14.138;2023-02-17T12:40:45;5.20;;;2.30;;
4222;SDS011;2125;51.436;14.138;2023-02-17T12:43:21;2.90;;;1.63;;
4222;SDS011;2125;51.436;14.138;2023-02-17T12:46:04;6.17;;;3.23;;
4222;SDS011;2125;51.436;14.138;2023-02-17T12:48:36;3.53;;;1.73;;
4222;SDS011;2125;51.436;14.138;2023-02-17T12:51:09;4.07;;;1.87;;
4222;SDS011;2125;51.436;14.138;2023-02-17T12:53:44;5.07;;;3.17;;
4222;SDS011;2125;51.436;14.138;2023-02-17T12:59:17;2.97;;;1.63;;
4222;SDS011;2125;51.436;14.138;2023-02-17T13:01:50;2.83;;;2.30;;
4222;SDS011;2125;51.436;14.138;2023-02-17T13:04:27;3.60;;;1.57;;
4222;SDS011;2125;51.436;14.138;2023-02-17T13:07:14;3.53;;;2.57;;
4222;SDS011;2125;51.436;14.138;2023-02-17T13:10:17;3.83;;;2.10;;
4222;SDS011;2125;51.436;14.138;2023-02-17T13:12:58;4.27;;;2.50;;
4222;SDS011;2125;51.436;14.138;2023-02-17T13:15:29;2.63;;;1.80;;
4222;SDS011;2125;51.436;14.138;2023-02-17T13:18:00;1.87;;;1.40;;
4222;SDS011;2125;51.436;14.138;2023-02-17T13:29:07;2.80;;;2.17;;
4222;SDS011;2125;51.436;14.138;2023-02-17T13:31:45;1.93;;;1.50;;
4222;SDS011;2125;51.436;14.138;2023-02-17T13:34:25;1.90;;;1.40;;
4222;SDS011;2125;51.436;14.138;2023-02-17T13:37:01;1.80;;;1.43;;
4222;SDS011;2125;51.436;14.138;2023-02-17T13:39:44;3.23;;;1.67;;
4222;SDS011;2125;51.436;14.138;2023-02-17T13:45:13;2.60;;;2.00;;
4222;SDS011;2125;51.436;14.138;2023-02-17T13:47:48;2.40;;;1.23;;
4222;SDS011;2125;51.436;14.138;2023-02-17T13:50:31;6.23;;;1.67;;
4222;SDS011;2125;51.436;14.138;2023-02-17T13:53:07;2.70;;;1.73;;
4222;SDS011;2125;51.436;14.138;2023-02-17T13:55:57;3.50;;;2.20;;
4222;SDS011;2125;51.436;14.138;2023-02-17T13:58:28;1.60;;;1.43;;
4222;SDS011;2125;51.436;14.138;2023-02-17T14:01:02;2.57;;;1.43;;
4222;SDS011;2125;51.436;14.138;2023-02-17T14:03:34;4.50;;;1.63;;
4222;SDS011;2125;51.436;14.138;2023-02-17T14:06:09;2.07;;;1.40;;
4222;SDS011;2125;51.436;14.138;2023-02-17T14:08:39;2.10;;;1.43;;
4222;SDS011;2125;51.436;14.138;2023-02-17T14:11:08;3.90;;;2.10;;
4222;SDS011;2125;51.436;14.138;2023-02-17T14:13:37;1.83;;;1.30;;
4222;SDS011;2125;51.436;14.138;2023-02-17T14:16:06;13.00;;;2.07;;
4222;SDS011;2125;51.436;14.138;2023-02-17T14:18:49;3.87;;;1.90;;
4222;SDS011;2125;51.436;14.138;2023-02-17T14:21:27;4.03;;;1.77;;
4222;SDS011;2125;51.436;14.138;2023-02-17T14:23:54;1.77;;;1.07;;
4222;SDS011;2125;51.436;14.138;2023-02-17T14:26:26;3.47;;;2.20;;
4222;SDS011;2125;51.436;14.138;2023-02-17T14:28:57;2.90;;;1.77;;
4222;SDS011;2125;51.436;14.138;2023-02-17T14:31:24;1.47;;;1.23;;
4222;SDS011;2125;51.436;14.138;2023-02-17T14:33:54;2.67;;;1.90;;
4222;SDS011;2125;51.436;14.138;2023-02-17T14:36:27;2.33;;;1.30;;
4222;SDS011;2125;51.436;14.138;2023-02-17T14:38:56;1.93;;;1.43;;
4222;SDS011;2125;51.436;14.138;2023-02-17T14:41:23;2.43;;;1.27;;
4222;SDS011;2125;51.436;14.138;2023-02-17T14:43:50;1.60;;;1.20;;
4222;SDS011;2125;51.436;14.138;2023-02-17T14:46:17;3.33;;;1.90;;
4222;SDS011;2125;51.436;14.138;2023-02-17T14:48:44;2.67;;;1.40;;
4222;SDS011;2125;51.436;14.138;2023-02-17T14:51:13;3.23;;;1.17;;
4222;SDS011;2125;51.436;14.138;2023-02-17T14:53:40;2.93;;;1.63;;
4222;SDS011;2125;51.436;14.138;2023-02-17T14:56:08;3.13;;;1.63;;
4222;SDS011;2125;51.436;14.138;2023-02-17T14:58:41;2.40;;;1.67;;
4222;SDS011;2125;51.436;14.138;2023-02-17T15:01:08;1.87;;;1.37;;
4222;SDS011;2125;51.436;14.138;2023-02-17T15:03:35;1.27;;;1.00;;
4222;SDS011;2125;51.436;14.138;2023-02-17T15:06:05;2.57;;;2.27;;
4222;SDS011;2125;51.436;14.138;2023-02-17T15:08:36;5.17;;;2.00;;
4222;SDS011;2125;51.436;14.138;2023-02-17T15:11:04;3.17;;;1.67;;
4222;SDS011;2125;51.436;14.138;2023-02-17T15:13:30;2.50;;;1.77;;
4222;SDS011;2125;51.436;14.138;2023-02-17T15:15:57;2.80;;;1.80;;
4222;SDS011;2125;51.436;14.138;2023-02-17T15:18:24;2.17;;;1.50;;
4222;SDS011;2125;51.436;14.138;2023-02-17T15:20:50;2.50;;;1.40;;
4222;SDS011;2125;51.436;14.138;2023-02-17T15:23:18;0.80;;;0.70;;
4222;SDS011;2125;51.436;14.138;2023-02-17T15:25:48;2.93;;;1.50;;
4222;SDS011;2125;51.436;14.138;2023-02-17T15:28:15;2.10;;;1.33;;
4222;SDS011;2125;51.436;14.138;2023-02-17T15:30:44;1.90;;;1.40;;
4222;SDS011;2125;51.436;14.138;2023-02-17T15:33:13;1.17;;;1.07;;
4222;SDS011;2125;51.436;14.138;2023-02-17T15:35:40;1.73;;;1.40;;
4222;SDS011;2125;51.436;14.138;2023-02-17T15:38:08;1.63;;;1.07;;
4222;SDS011;2125;51.436;14.138;2023-02-17T15:40:37;3.33;;;1.47;;
4222;SDS011;2125;51.436;14.138;2023-02-17T15:43:08;1.30;;;1.00;;